Time;durP1;ratioP1;P1;durP2;ratioP2;P2;SDS_P1;SDS_P2;PMS_P1;PMS_P2;Temp;Humidity;BMP_temperature;BMP_pressure;BME280_temperature;BME280_humidity;BME280_pressure;Samples;Min_cycle;Max_cycle;Signal;HPM_P1;HPM_P2
2022/03/21 00:00:32;;;;;;;0.30;0.30;;;;;;;23.23;14.04;103010.50;5066827;28;20174;-75
2022/03/21 00:03:01;;;;;;;0.40;0.40;;;;;;;23.24;14.17;103012.19;5066438;28;20025;-75
2022/03/21 00:05:28;;;;;;;0.30;0.30;;;;;;;23.24;14.16;103004.03;5066822;28;20029;-74
2022/03/21 00:07:53;;;;;;;0.30;0.30;;;;;;;23.23;14.00;103005.06;5085678;28;20495;-75
2022/03/21 00:10:19;;;;;;;0.30;0.30;;;;;;;23.25;14.17;103005.72;5085394;28;20036;-75
2022/03/21 00:12:45;;;;;;;0.40;0.40;;;;;;;23.23;13.90;103003.19;5085780;28;20031;-75
2022/03/21 00:15:10;;;;;;;0.30;0.30;;;;;;;23.22;14.01;102998.78;5087234;28;20025;-76
2022/03/21 00:17:39;;;;;;;0.40;0.40;;;;;;;23.21;13.91;102996.25;5087333;28;20024;-75
2022/03/21 00:20:06;;;;;;;0.30;0.30;;;;;;;23.21;14.05;103005.25;5085874;28;20142;-75
2022/03/21 00:22:32;;;;;;;0.40;0.40;;;;;;;23.22;14.08;103001.50;5087172;28;20107;-76
2022/03/21 00:24:58;;;;;;;0.52;0.40;;;;;;;23.20;14.08;103005.50;5086745;28;20074;-75
2022/03/21 00:27:23;;;;;;;0.50;0.40;;;;;;;23.23;13.83;103005.06;5085424;28;20033;-75
2022/03/21 00:29:48;;;;;;;0.30;0.30;;;;;;;23.21;13.83;103004.44;5085994;28;20034;-75
2022/03/21 00:32:14;;;;;;;0.30;0.30;;;;;;;23.21;13.82;102997.06;5086171;28;20056;-75
2022/03/21 00:34:39;;;;;;;0.30;0.30;;;;;;;23.22;13.77;102992.47;5068867;28;20035;-74
2022/03/21 00:37:06;;;;;;;0.30;0.30;;;;;;;23.22;13.74;103004.22;5086232;28;20030;-75
2022/03/21 00:39:31;;;;;;;0.30;0.30;;;;;;;23.20;13.97;103003.59;5068572;28;20029;-75
2022/03/21 00:41:57;;;;;;;0.30;0.30;;;;;;;23.21;14.00;102996.25;5086709;28;20028;-75
2022/03/21 00:44:22;;;;;;;0.40;0.40;;;;;;;23.21;14.13;102997.06;5086597;28;20044;-75
2022/03/21 00:46:47;;;;;;;0.20;0.20;;;;;;;23.19;13.71;102991.00;5086445;28;20025;-74
2022/03/21 00:49:13;;;;;;;0.32;0.32;;;;;;;23.20;13.74;102992.69;5087079;28;20462;-75
2022/03/21 00:51:39;;;;;;;0.30;0.30;;;;;;;23.20;13.84;102984.50;5085406;28;20025;-75
2022/03/21 00:54:04;;;;;;;0.30;0.30;;;;;;;23.20;13.84;102992.69;5085564;28;20020;-75
2022/03/21 00:56:29;;;;;;;0.60;0.40;;;;;;;23.21;13.84;102990.78;5084566;28;20028;-75
2022/03/21 00:58:55;;;;;;;0.30;0.30;;;;;;;23.20;13.69;102983.69;5084816;28;20025;-76
2022/03/21 01:01:20;;;;;;;0.20;0.20;;;;;;;23.21;13.92;102990.78;5084570;28;20043;-75
2022/03/21 01:03:46;;;;;;;0.30;0.30;;;;;;;23.21;13.76;102979.88;5085694;28;20031;-75
2022/03/21 01:06:11;;;;;;;0.35;0.35;;;;;;;23.21;13.64;102985.34;5085969;28;20041;-75
2022/03/21 01:08:36;;;;;;;0.28;0.25;;;;;;;23.20;13.83;102989.97;5086972;28;20100;-77
2022/03/21 01:11:02;;;;;;;0.30;0.30;;;;;;;23.20;13.81;102983.69;5089381;28;20043;-78
2022/03/21 01:13:28;;;;;;;0.30;0.30;;;;;;;23.21;13.71;102990.78;5088546;28;20025;-77
2022/03/21 01:15:53;;;;;;;0.30;0.30;;;;;;;23.19;13.78;102987.44;5089598;28;20029;-78
2022/03/21 01:18:21;;;;;;;0.30;0.30;;;;;;;23.20;13.61;102983.69;5087078;28;20421;-77
2022/03/21 01:20:47;;;;;;;0.30;0.30;;;;;;;23.19;13.90;102987.44;5088440;28;20024;-78
2022/03/21 01:23:12;;;;;;;0.40;0.40;;;;;;;23.19;13.75;102990.16;5087842;28;20107;-77
2022/03/21 01:25:37;;;;;;;0.30;0.30;;;;;;;23.20;13.83;102983.69;5087558;28;20098;-77
2022/03/21 01:28:03;;;;;;;0.30;0.30;;;;;;;23.18;13.76;102975.69;5087200;28;20048;-78
2022/03/21 01:30:29;;;;;;;0.40;0.40;;;;;;;23.19;13.71;102971.06;5086709;28;20016;-77
2022/03/21 01:32:54;;;;;;;0.30;0.30;;;;;;;23.19;13.68;102976.53;5086461;28;20463;-77
2022/03/21 01:35:21;;;;;;;0.40;0.30;;;;;;;23.19;13.72;102971.06;5086782;28;20050;-77
2022/03/21 01:37:47;;;;;;;0.22;0.22;;;;;;;23.18;13.68;102974.84;5087851;28;20028;-77
2022/03/21 01:40:12;;;;;;;0.35;0.35;;;;;;;23.16;13.57;102971.47;5086611;28;20112;-77
2022/03/21 01:42:39;;;;;;;0.20;0.20;;;;;;;23.18;13.65;102974.84;5087344;28;20040;-78
2022/03/21 01:45:05;;;;;;;0.30;0.30;;;;;;;23.16;13.68;102974.22;5087416;28;20039;-75
2022/03/21 01:47:33;;;;;;;0.32;0.32;;;;;;;23.16;13.65;102975.06;5087926;28;20028;-75
2022/03/21 01:49:58;;;;;;;0.30;0.30;;;;;;;23.15;13.73;102967.09;5085718;28;20047;-73
2022/03/21 01:52:24;;;;;;;0.20;0.20;;;;;;;23.16;13.57;102963.31;5084313;28;20025;-74
2022/03/21 01:57:33;;;;;;;0.75;0.40;;;;;;;23.18;13.51;102967.50;5054671;28;20090;-75
2022/03/21 01:59:59;;;;;;;0.30;0.30;;;;;;;23.16;13.50;102969.63;5066203;28;20429;-74
2022/03/21 02:02:25;;;;;;;0.28;0.28;;;;;;;23.15;13.55;102967.94;5083583;28;20107;-75
2022/03/21 02:04:50;;;;;;;0.40;0.40;;;;;;;23.19;13.56;102971.06;5066664;28;20047;-75
2022/03/21 02:07:17;;;;;;;0.30;0.30;;;;;;;23.18;13.37;102972.09;5084579;28;20055;-75
2022/03/21 02:09:42;;;;;;;0.20;0.20;;;;;;;23.16;13.62;102980.53;5048964;28;20028;-75
2022/03/21 02:12:08;;;;;;;0.22;0.22;;;;;;;23.16;13.56;102966.03;5049248;28;20029;-75
2022/03/21 02:14:39;;;;;;;0.30;0.30;;;;;;;23.16;13.51;102960.56;5082325;28;20021;-75
2022/03/21 02:17:04;;;;;;;0.30;0.30;;;;;;;23.16;13.41;102960.56;5066084;28;20131;-75
2022/03/21 02:19:31;;;;;;;0.38;0.38;;;;;;;23.15;13.49;102958.91;5082747;28;20069;-75
2022/03/21 02:22:24;;;;;;;0.32;0.32;;;;;;;23.20;13.45;102956.41;5084648;28;20060;-75
2022/03/21 02:25:14;;;;;;;0.40;0.40;;;;;;;23.19;13.61;102955.53;5084659;28;20040;-75
2022/03/21 02:27:39;;;;;;;0.30;0.30;;;;;;;23.17;13.39;102960.38;5084381;28;20037;-75
2022/03/21 02:30:05;;;;;;;0.40;0.40;;;;;;;23.16;13.43;102961.44;5066914;28;20036;-75
2022/03/21 02:32:30;;;;;;;0.20;0.20;;;;;;;23.15;13.36;102964.38;5083866;28;20041;-76
2022/03/21 02:34:56;;;;;;;0.28;0.25;;;;;;;23.16;13.64;102966.03;5084297;28;20035;-76
2022/03/21 02:37:22;;;;;;;0.30;0.30;;;;;;;23.12;13.34;102959.31;5084513;28;20028;-75
2022/03/21 02:39:48;;;;;;;0.30;0.30;;;;;;;23.13;13.35;102956.38;5084895;28;20040;-75
2022/03/21 02:42:14;;;;;;;0.50;0.50;;;;;;;23.13;13.31;102961.84;5050110;28;20466;-75
2022/03/21 02:44:39;;;;;;;0.30;0.30;;;;;;;23.13;13.30;102956.38;5087655;28;20020;-75
2022/03/21 02:47:05;;;;;;;0.40;0.40;;;;;;;23.15;13.19;102958.91;5088372;28;20024;-75
2022/03/21 02:49:33;;;;;;;0.38;0.28;;;;;;;23.13;13.19;102944.63;5089571;28;20025;-75
2022/03/21 02:51:59;;;;;;;0.55;0.35;;;;;;;23.13;13.25;102952.81;5090547;28;20029;-75
2022/03/21 02:54:25;;;;;;;0.28;0.28;;;;;;;23.14;13.22;102954.50;5089119;28;20339;-75
2022/03/21 02:56:51;;;;;;;0.30;0.30;;;;;;;23.14;13.24;102943.59;5089957;28;20063;-75
2022/03/21 02:59:17;;;;;;;0.32;0.32;;;;;;;23.14;13.25;102946.31;5088916;28;20080;-75
2022/03/21 03:01:42;;;;;;;0.32;0.30;;;;;;;23.13;12.96;102941.91;5087909;28;20470;-75
2022/03/21 03:04:08;;;;;;;0.22;0.22;;;;;;;23.13;13.03;102944.63;5069958;28;20036;-75
2022/03/21 03:06:34;;;;;;;0.43;0.30;;;;;;;23.14;13.03;102949.03;5079996;28;20045;-74
2022/03/21 03:08:59;;;;;;;0.30;0.30;;;;;;;23.14;13.06;102959.94;5068964;28;20051;-75
2022/03/21 03:11:25;;;;;;;0.30;0.30;;;;;;;23.15;12.91;102961.63;5067686;28;20025;-75
2022/03/21 03:13:50;;;;;;;0.30;0.30;;;;;;;23.15;12.96;102956.19;5067904;28;20029;-75
2022/03/21 03:16:15;;;;;;;0.30;0.30;;;;;;;23.14;13.13;102951.75;5067688;28;20032;-75
2022/03/21 03:18:44;;;;;;;0.30;0.30;;;;;;;23.14;12.80;102962.69;5068410;28;20032;-74
2022/03/21 03:21:10;;;;;;;0.40;0.40;;;;;;;23.11;12.91;102958.50;5068583;28;20040;-74
2022/03/21 03:23:37;;;;;;;0.30;0.30;;;;;;;23.11;12.90;102957.63;5067680;28;20025;-76
2022/03/21 03:26:03;;;;;;;0.32;0.20;;;;;;;23.11;12.95;102955.78;5033900;28;20101;-75
2022/03/21 03:28:29;;;;;;;0.30;0.30;;;;;;;23.12;12.98;102953.88;5067835;28;20040;-75
2022/03/21 03:30:55;;;;;;;0.32;0.32;;;;;;;23.08;12.93;102942.53;5067892;28;20388;-75
2022/03/21 03:33:20;;;;;;;0.32;0.30;;;;;;;23.12;13.02;102951.13;5050431;28;20029;-74
2022/03/21 03:35:46;;;;;;;0.45;0.30;;;;;;;23.10;12.83;102948.63;5068650;28;20028;-75
2022/03/21 03:38:12;;;;;;;0.20;0.20;;;;;;;23.12;12.89;102948.41;5068479;28;20036;-73
2022/03/21 03:40:37;;;;;;;0.30;0.30;;;;;;;23.12;12.71;102956.59;5068578;28;20021;-75
2022/03/21 03:43:03;;;;;;;0.30;0.30;;;;;;;23.11;12.80;102954.91;5068605;28;20059;-75
2022/03/21 03:45:28;;;;;;;0.28;0.28;;;;;;;23.11;12.66;102952.19;5067940;28;20047;-75
2022/03/21 03:47:53;;;;;;;0.30;0.28;;;;;;;23.13;12.89;102955.53;5068512;28;20075;-75
2022/03/21 03:50:19;;;;;;;0.30;0.30;;;;;;;23.11;12.54;102950.31;5068799;28;20016;-75
2022/03/21 03:52:46;;;;;;;0.30;0.30;;;;;;;23.11;12.58;102944.00;5067848;28;20025;-75
2022/03/21 03:55:13;;;;;;;0.40;0.40;;;;;;;23.08;12.70;102937.09;5067154;28;20032;-76
2022/03/21 03:57:38;;;;;;;0.30;0.30;;;;;;;23.10;12.38;102945.91;5066577;28;20031;-75
2022/03/21 04:00:05;;;;;;;0.30;0.30;;;;;;;23.10;12.59;102942.34;5067147;28;20028;-75
2022/03/21 04:03:44;;;;;;;0.20;0.20;;;;;;;23.10;12.56;102939.59;5065651;28;20093;-75
2022/03/21 04:05:15;;;;;;;0.30;0.30;;;;;;;23.12;12.42;102942.97;5065934;28;20080;-74
2022/03/21 04:07:41;;;;;;;0.30;0.30;;;;;;;23.11;12.34;102947.59;5084204;28;20438;-75
2022/03/21 04:10:06;;;;;;;0.40;0.40;;;;;;;23.11;12.25;102941.28;5085078;28;20025;-75
2022/03/21 04:12:32;;;;;;;0.30;0.30;;;;;;;23.11;12.47;102938.53;5083810;28;20024;-76
2022/03/21 04:14:58;;;;;;;0.20;0.20;;;;;;;23.10;12.33;102940.44;5083548;28;20021;-74
2022/03/21 04:17:23;;;;;;;0.30;0.30;;;;;;;23.11;12.36;102942.13;5081613;28;20466;-74
2022/03/21 04:19:48;;;;;;;0.20;0.20;;;;;;;23.12;12.38;102948.41;5083535;28;20024;-75
2022/03/21 04:22:14;;;;;;;0.50;0.30;;;;;;;23.11;12.17;102947.59;5085177;28;20028;-75
2022/03/21 04:24:39;;;;;;;0.47;0.30;;;;;;;23.12;12.22;102946.53;5085019;28;20025;-75
2022/03/21 04:27:05;;;;;;;0.57;0.38;;;;;;;23.13;12.11;102944.63;5087902;28;20112;-75
2022/03/21 04:29:30;;;;;;;0.30;0.30;;;;;;;23.14;12.23;102932.69;5093758;28;20017;-75
2022/03/21 04:31:56;;;;;;;0.63;0.40;;;;;;;23.17;12.37;102941.28;5094196;28;20039;-76
2022/03/21 04:34:21;;;;;;;0.28;0.28;;;;;;;23.20;12.25;102934.56;5093899;28;20029;-76
2022/03/21 04:36:47;;;;;;;0.30;0.30;;;;;;;23.20;12.42;102934.56;5090224;28;20050;-74
2022/03/21 04:39:12;;;;;;;0.30;0.30;;;;;;;23.22;12.18;102935.19;5091305;28;20021;-73
2022/03/21 04:41:37;;;;;;;0.30;0.30;;;;;;;23.25;12.35;102942.97;5092827;28;20036;-76
2022/03/21 04:44:03;;;;;;;0.28;0.28;;;;;;;23.26;12.36;102936.44;5093122;28;20369;-75
2022/03/21 04:46:29;;;;;;;0.43;0.30;;;;;;;23.24;12.44;102924.91;5093138;28;20029;-75
2022/03/21 04:48:54;;;;;;;0.40;0.40;;;;;;;23.29;12.31;102932.47;5094275;28;20398;-74
2022/03/21 04:51:19;;;;;;;0.28;0.28;;;;;;;23.30;12.34;102920.47;5092913;28;20025;-74
2022/03/21 04:53:45;;;;;;;0.20;0.20;;;;;;;23.32;12.08;102921.97;5092204;28;20023;-75
2022/03/21 04:56:11;;;;;;;0.20;0.20;;;;;;;23.35;11.84;102920.69;5092779;28;20492;-74
2022/03/21 04:58:37;;;;;;;0.38;0.38;;;;;;;23.37;12.41;102927.63;5092881;28;20055;-75
2022/03/21 05:01:02;;;;;;;0.30;0.30;;;;;;;23.36;12.14;102917.75;5090737;28;20017;-75
2022/03/21 05:03:28;;;;;;;0.30;0.30;;;;;;;23.43;12.33;102928.66;5085809;28;20150;-76
2022/03/21 05:05:53;;;;;;;0.30;0.30;;;;;;;23.42;12.26;102924.25;5084109;28;20045;-76
2022/03/21 05:08:18;;;;;;;0.30;0.30;;;;;;;23.43;12.07;102913.13;5085659;28;20047;-74
2022/03/21 05:10:44;;;;;;;0.40;0.40;;;;;;;23.47;12.12;102915.44;5085857;28;20028;-76
2022/03/21 05:13:10;;;;;;;0.30;0.30;;;;;;;23.48;12.27;102923.41;5083284;28;20021;-75
2022/03/21 05:15:36;;;;;;;0.40;0.40;;;;;;;23.48;12.21;102914.38;5085307;28;20027;-76
2022/03/21 05:18:01;;;;;;;0.30;0.30;;;;;;;23.51;12.36;102916.66;5085133;28;20033;-76
2022/03/21 05:20:30;;;;;;;0.40;0.40;;;;;;;23.51;12.37;102920.25;5084331;28;20028;-77
2022/03/21 05:31:07;;;;;;;0.50;0.30;;;;;;;23.56;12.31;102905.94;5078390;28;20036;-75
2022/03/21 05:36:29;;;;;;;0.20;0.20;;;;;;;23.62;12.37;102916.03;5091006;28;20039;-75
2022/03/21 05:38:54;;;;;;;0.30;0.30;;;;;;;23.65;12.47;102910.13;5092498;28;20370;-75
2022/03/21 05:41:20;;;;;;;0.85;0.30;;;;;;;23.65;12.55;102915.59;5094593;28;20036;-75
2022/03/21 05:43:45;;;;;;;0.40;0.40;;;;;;;23.70;12.46;102913.06;5093143;28;20024;-75
2022/03/21 05:46:11;;;;;;;0.30;0.30;;;;;;;23.71;12.56;102908.44;5079465;28;20024;-75
2022/03/21 05:48:53;;;;;;;0.30;0.30;;;;;;;23.72;12.53;102910.97;5077845;28;20027;-75
2022/03/21 05:51:32;;;;;;;0.30;0.30;;;;;;;23.73;12.43;102915.38;5081968;28;20125;-75
2022/03/21 05:54:16;;;;;;;0.93;0.43;;;;;;;23.76;12.69;102917.66;5081059;28;20031;-76
2022/03/21 05:56:42;;;;;;;0.30;0.30;;;;;;;23.83;12.45;102917.66;5080843;28;20032;-75
2022/03/21 06:01:52;;;;;;;1.13;0.65;;;;;;;23.91;12.51;102913.88;5074490;28;20100;-76
2022/03/21 06:04:17;;;;;;;288.60;121.95;;;;;;;23.92;12.92;102904.59;5075082;28;20048;-76
2022/03/21 06:06:43;;;;;;;174.32;74.28;;;;;;;23.99;13.10;102910.88;5075694;28;20072;-76
2022/03/21 06:09:09;;;;;;;207.82;83.28;;;;;;;23.99;12.79;102917.19;5082018;28;20024;-74
2022/03/21 06:11:36;;;;;;;143.63;52.60;;;;;;;24.00;13.11;102921.59;5061100;28;20051;-75
2022/03/21 06:14:02;;;;;;;47.92;19.35;;;;;;;24.07;12.89;102918.84;5060124;28;20120;-75
2022/03/21 06:16:28;;;;;;;27.67;10.55;;;;;;;24.12;13.02;102916.28;5064290;28;20100;-75
2022/03/21 06:18:53;;;;;;;15.00;5.72;;;;;;;24.17;12.92;102912.91;5060033;28;20027;-74
2022/03/21 06:21:18;;;;;;;13.63;5.18;;;;;;;24.19;13.20;102917.09;5063680;28;20074;-75
2022/03/21 06:23:44;;;;;;;7.28;4.10;;;;;;;24.15;13.19;102913.13;5064009;28;20021;-76
2022/03/21 06:26:09;;;;;;;10.80;4.13;;;;;;;24.23;12.93;102913.94;5058725;28;20033;-77
2022/03/21 06:28:35;;;;;;;9.73;3.20;;;;;;;24.24;13.33;102907.41;5057635;28;20069;-77
2022/03/21 06:31:00;;;;;;;10.77;3.40;;;;;;;24.27;13.20;102912.44;5057729;28;20387;-76
2022/03/21 06:33:27;;;;;;;6.45;2.78;;;;;;;24.24;13.49;102901.94;5063687;28;20031;-77
2022/03/21 06:35:53;;;;;;;7.78;3.38;;;;;;;24.37;13.30;102912.81;5058527;28;20021;-77
2022/03/21 06:38:18;;;;;;;10.48;3.35;;;;;;;24.43;13.07;102909.19;5057712;28;20471;-77
2022/03/21 06:40:44;;;;;;;9.10;2.95;;;;;;;24.43;13.22;102902.91;5056796;28;20021;-79
2022/03/21 06:43:10;;;;;;;7.55;3.15;;;;;;;24.47;13.34;102902.22;5057413;28;20036;-78
2022/03/21 06:45:36;;;;;;;8.00;3.17;;;;;;;24.44;13.04;102902.69;5061092;28;20104;-78
2022/03/21 06:48:01;;;;;;;5.68;2.80;;;;;;;24.52;13.46;102893.38;5060863;28;20033;-76
2022/03/21 06:50:27;;;;;;;7.30;3.17;;;;;;;24.57;13.25;102890.84;5060172;28;20056;-79
2022/03/21 06:52:52;;;;;;;6.32;2.45;;;;;;;24.61;13.13;102896.69;5059260;28;20128;-79
2022/03/21 06:55:18;;;;;;;6.95;2.42;;;;;;;24.58;13.29;102897.13;5066369;28;20035;-79
2022/03/21 06:57:43;;;;;;;5.13;2.13;;;;;;;24.66;13.23;102899.59;5058101;28;20033;-79
2022/03/21 07:00:09;;;;;;;5.43;1.80;;;;;;;24.66;13.29;102894.97;5063564;28;20482;-79
2022/03/21 07:02:34;;;;;;;3.45;1.58;;;;;;;24.68;13.31;102898.34;5060321;28;20423;-79
2022/03/21 07:05:00;;;;;;;4.07;1.98;;;;;;;24.73;12.96;102897.66;5057604;28;20056;-76
2022/03/21 07:07:26;;;;;;;4.63;2.28;;;;;;;24.77;13.26;102889.84;5056923;28;20190;-78
2022/03/21 07:09:51;;;;;;;5.35;2.05;;;;;;;24.77;13.30;102893.44;5057181;28;20036;-77
2022/03/21 07:12:19;;;;;;;5.32;2.33;;;;;;;24.72;13.38;102894.09;5065481;28;20032;-77
2022/03/21 07:14:45;;;;;;;2.90;1.75;;;;;;;24.74;13.42;102888.41;5077298;28;20037;-78
2022/03/21 07:17:10;;;;;;;3.33;1.20;;;;;;;24.81;13.40;102891.91;5077227;28;20044;-76
2022/03/21 07:19:37;;;;;;;3.75;1.65;;;;;;;24.78;13.80;102884.16;5077022;28;20102;-78
2022/03/21 07:22:03;;;;;;;4.82;1.80;;;;;;;24.87;13.88;102882.84;5009696;28;20160;-78
2022/03/21 07:24:28;;;;;;;4.68;1.88;;;;;;;24.86;13.59;102883.88;5077345;28;20368;-79
2022/03/21 07:26:54;;;;;;;3.13;1.95;;;;;;;24.88;13.87;102870.81;5076428;28;20110;-77
2022/03/21 07:29:19;;;;;;;3.95;1.63;;;;;;;24.88;13.60;102889.97;5078260;28;20033;-78
2022/03/21 07:31:47;;;;;;;3.88;2.20;;;;;;;24.93;13.77;102884.66;5076836;28;20036;-78
2022/03/21 07:34:14;;;;;;;2.60;1.63;;;;;;;24.94;13.83;102874.56;5077804;28;20024;-80
2022/03/21 07:36:39;;;;;;;3.53;1.67;;;;;;;24.93;14.05;102873.72;5078741;28;20036;-79
2022/03/21 07:39:13;;;;;;;3.85;2.03;;;;;;;24.99;14.12;102869.28;5077098;28;20033;-75
2022/03/21 07:41:41;;;;;;;;;;;;;;;25.30;13.71;102868.34;5077572;28;20036;-78
2022/03/21 07:44:07;;;;;;;3.78;2.03;;;;;;;25.08;14.23;102875.28;5079446;28;20215;-78
2022/03/21 07:49:16;;;;;;;7.35;3.08;;;;;;;25.10;13.92;102873.97;5076781;28;20036;-75
2022/03/21 07:51:43;;;;;;;4.95;2.40;;;;;;;25.14;14.03;102871.63;5075626;28;20028;-76
2022/03/21 07:54:10;;;;;;;3.33;1.90;;;;;;;25.08;13.86;102875.28;5078644;28;20203;-74
2022/03/21 07:56:35;;;;;;;5.88;2.22;;;;;;;25.04;14.34;102879.50;5079065;28;20028;-77
2022/03/21 07:59:01;;;;;;;6.22;2.08;;;;;;;25.14;13.90;102879.84;5075954;28;20104;-77
2022/03/21 08:01:29;;;;;;;4.68;2.25;;;;;;;25.17;13.97;102867.63;5058378;28;20397;-77
2022/03/21 08:03:55;;;;;;;4.32;2.10;;;;;;;25.28;14.06;102870.50;5076794;28;20030;-77
2022/03/21 08:06:20;;;;;;;4.80;2.13;;;;;;;25.31;13.91;102869.19;5075982;28;20384;-75
2022/03/21 08:08:48;;;;;;;6.80;2.40;;;;;;;25.23;14.02;102859.34;5075065;28;20463;-73
2022/03/21 08:11:13;;;;;;;5.10;2.88;;;;;;;25.33;14.17;102866.22;5059018;28;20055;-78
2022/03/21 08:13:39;;;;;;;4.40;2.53;;;;;;;25.40;13.98;102861.50;5075785;28;20451;-78
2022/03/21 08:16:04;;;;;;;4.93;2.40;;;;;;;25.41;13.83;102860.47;5075887;28;20029;-77
2022/03/21 08:18:30;;;;;;;4.90;2.05;;;;;;;25.41;13.71;102853.06;5076508;28;20390;-78
2022/03/21 08:20:55;;;;;;;4.53;1.67;;;;;;;25.44;13.88;102858.09;5075599;28;20463;-77
2022/03/21 08:23:21;;;;;;;5.10;2.40;;;;;;;25.44;13.72;102855.34;5075299;28;20036;-79
2022/03/21 08:25:46;;;;;;;5.28;2.67;;;;;;;25.43;14.10;102847.38;5075404;28;20031;-77
2022/03/21 08:28:12;;;;;;;7.55;2.70;;;;;;;25.45;13.79;102842.50;5075906;28;20095;-77
2022/03/21 08:30:38;;;;;;;4.22;2.35;;;;;;;25.43;14.08;102840.00;5075631;28;20439;-77
2022/03/21 08:33:06;;;;;;;4.32;1.95;;;;;;;25.48;13.77;102844.78;5075435;28;20023;-76
2022/03/21 08:35:31;;;;;;;5.72;2.40;;;;;;;25.52;14.01;102851.47;5075829;28;20036;-76
2022/03/21 08:37:57;;;;;;;4.43;2.25;;;;;;;25.57;13.81;102842.56;5075882;28;20513;-76
2022/03/21 08:40:22;;;;;;;6.22;2.78;;;;;;;25.55;13.75;102839.25;5075575;28;20035;-78
2022/03/21 08:42:48;;;;;;;4.75;2.63;;;;;;;25.62;14.02;102849.03;5075524;28;20143;-79
2022/03/21 08:45:15;;;;;;;6.97;2.90;;;;;;;25.68;13.81;102845.38;5076473;28;20036;-81
2022/03/21 08:47:41;;;;;;;6.78;2.72;;;;;;;25.60;13.73;102834.75;5075612;28;20024;-77
2022/03/21 08:50:07;;;;;;;4.38;2.20;;;;;;;25.63;13.81;102838.91;5074978;28;20017;-78
2022/03/21 08:52:33;;;;;;;7.15;3.00;;;;;;;25.65;13.34;102843.09;5074651;28;20340;-78
2022/03/21 08:54:58;;;;;;;5.57;3.00;;;;;;;25.57;13.48;102840.66;5074368;28;20031;-75
2022/03/21 08:57:23;;;;;;;5.85;2.45;;;;;;;25.59;13.36;102833.06;5074962;28;20431;-78
2022/03/21 08:59:52;;;;;;;7.90;2.85;;;;;;;25.60;13.41;102828.44;5074854;28;20324;-78
2022/03/21 09:02:18;;;;;;;5.10;2.60;;;;;;;25.66;13.43;102833.84;5074333;28;20036;-76
2022/03/21 09:04:44;;;;;;;6.57;2.50;;;;;;;25.73;13.38;102832.88;5073940;28;20048;-76
2022/03/21 09:07:09;;;;;;;6.03;2.50;;;;;;;25.73;13.30;102833.72;5073983;28;20041;-78
2022/03/21 09:09:35;;;;;;;5.05;2.10;;;;;;;25.74;13.06;102829.94;5074437;28;20028;-76
2022/03/21 09:12:00;;;;;;;4.32;1.70;;;;;;;25.78;13.15;102833.03;5074426;28;20032;-78
2022/03/21 09:14:26;;;;;;;6.00;2.05;;;;;;;25.79;13.19;102826.50;5074213;28;20485;-77
2022/03/21 09:16:52;;;;;;;2.35;1.17;;;;;;;25.82;13.07;102829.63;5074736;28;20042;-77
2022/03/21 09:19:18;;;;;;;2.17;1.17;;;;;;;25.83;13.18;102827.69;5074722;28;20028;-77
2022/03/21 09:21:44;;;;;;;2.60;1.23;;;;;;;25.84;13.12;102823.91;5074487;28;20028;-76
2022/03/21 09:24:10;;;;;;;2.03;1.00;;;;;;;25.83;12.95;102830.44;5074162;28;20024;-78
2022/03/21 09:26:36;;;;;;;2.15;1.00;;;;;;;25.88;12.88;102829.75;5074389;28;20038;-75
2022/03/21 09:29:04;;;;;;;1.60;0.80;;;;;;;25.89;13.18;102834.16;5074602;28;20406;-76
2022/03/21 09:31:33;;;;;;;1.70;0.70;;;;;;;25.79;13.00;102821.03;5073892;28;20020;-77
2022/03/21 09:33:59;;;;;;;1.70;0.85;;;;;;;25.84;12.93;102824.72;5074524;28;20111;-78
2022/03/21 09:36:25;;;;;;;1.35;0.93;;;;;;;25.88;12.90;102825.09;5074941;28;20079;-78
2022/03/21 09:38:50;;;;;;;1.13;0.80;;;;;;;25.89;12.82;102815.84;5074248;28;20439;-77
2022/03/21 09:41:22;;;;;;;0.52;0.50;;;;;;;25.92;12.92;102815.34;5074288;28;20348;-78
2022/03/21 09:43:51;;;;;;;0.50;0.50;;;;;;;25.96;12.74;102821.25;5074491;28;20039;-78
2022/03/21 09:46:16;;;;;;;0.98;0.60;;;;;;;25.92;12.64;102815.34;5075620;28;20028;-79
2022/03/21 09:48:42;;;;;;;1.50;0.70;;;;;;;25.95;12.45;102812.19;5075195;28;20517;-78
2022/03/21 09:51:07;;;;;;;1.00;0.60;;;;;;;25.92;12.72;102807.13;5040350;28;20130;-78
2022/03/21 09:53:33;;;;;;;0.73;0.47;;;;;;;25.96;12.71;102808.38;5055812;28;20382;-77
2022/03/21 09:56:01;;;;;;;1.08;0.70;;;;;;;26.00;12.79;102811.50;5075900;28;20037;-78
2022/03/21 09:58:28;;;;;;;0.65;0.50;;;;;;;26.05;12.63;102803.41;5074123;28;20025;-78
2022/03/21 10:00:54;;;;;;;0.80;0.50;;;;;;;25.97;12.74;102801.81;5074645;28;20052;-76
2022/03/21 10:03:22;;;;;;;0.73;0.57;;;;;;;26.03;12.45;102803.63;5074804;28;20028;-76
2022/03/21 10:05:49;;;;;;;1.60;0.70;;;;;;;26.07;12.57;102794.97;5074276;28;20025;-78
2022/03/21 10:08:28;;;;;;;0.70;0.60;;;;;;;26.04;12.63;102788.88;5079266;28;20067;-78
2022/03/21 10:11:05;;;;;;;1.23;0.77;;;;;;;26.02;12.66;102793.72;5073966;28;20104;-76
2022/03/21 10:13:35;;;;;;;1.20;0.70;;;;;;;25.81;12.74;102791.50;5073115;28;20021;-78
2022/03/21 10:16:14;;;;;;;1.05;0.63;;;;;;;26.09;12.55;102787.34;5073964;28;20021;-79
2022/03/21 10:18:51;;;;;;;1.92;1.10;;;;;;;26.13;12.75;102800.34;5074080;28;20016;-78
2022/03/21 10:21:21;;;;;;;3.03;1.10;;;;;;;26.07;12.54;102805.91;5073825;28;20028;-76
2022/03/21 10:24:06;;;;;;;1.60;1.20;;;;;;;26.18;12.62;102796.88;5056640;28;20036;-78
2022/03/21 10:26:33;;;;;;;7.38;2.88;;;;;;;26.11;12.55;102802.44;5074156;28;20044;-77
2022/03/21 10:29:08;;;;;;;8.77;3.90;;;;;;;26.11;12.52;102802.44;5075266;28;20045;-77
2022/03/21 10:31:41;;;;;;;6.15;2.85;;;;;;;26.15;12.46;102800.13;5075400;28;20431;-75
2022/03/21 10:34:30;;;;;;;5.80;2.47;;;;;;;26.16;12.90;102793.53;5075677;28;20025;-76
2022/03/21 10:37:10;;;;;;;4.45;2.30;;;;;;;25.83;13.69;102794.84;5076548;28;20265;-77
2022/03/21 10:39:40;;;;;;;5.30;1.52;;;;;;;25.59;13.81;102794.72;5075451;28;20021;-74
2022/03/21 10:42:13;;;;;;;3.75;1.60;;;;;;;25.75;13.39;102806.09;5042803;28;20024;-74
2022/03/21 10:44:38;;;;;;;4.25;1.65;;;;;;;26.00;12.83;102801.34;5077912;28;20028;-82
2022/03/21 10:47:05;;;;;;;3.90;1.35;;;;;;;26.08;12.69;102791.13;5079485;28;20033;-79
2022/03/21 10:49:52;;;;;;;2.85;1.30;;;;;;;25.61;13.50;102803.56;5077164;28;20063;-79
2022/03/21 10:52:18;;;;;;;4.72;1.20;;;;;;;25.65;13.35;102814.88;5077051;28;20100;-79
2022/03/21 10:54:50;;;;;;;4.05;1.38;;;;;;;25.75;13.35;102806.09;5078828;28;20031;-81
2022/03/21 10:57:30;;;;;;;4.85;1.35;;;;;;;25.90;13.18;102806.53;5081508;28;20084;-82
2022/03/21 11:00:18;;;;;;;2.92;1.48;;;;;;;26.13;12.90;102804.97;5083236;28;20036;-80
2022/03/21 11:03:06;;;;;;;2.05;1.27;;;;;;;26.17;12.83;102801.53;5084644;28;20028;-81
2022/03/21 11:05:47;;;;;;;2.63;1.38;;;;;;;26.28;12.75;102802.63;5086855;28;20024;-79
2022/03/21 11:08:15;;;;;;;1.92;1.10;;;;;;;26.35;12.29;102797.88;5036000;28;20041;-77
2022/03/21 11:10:41;;;;;;;4.07;1.10;;;;;;;26.37;12.12;102784.78;5074914;28;20033;-82
2022/03/21 11:13:07;;;;;;;1.73;0.90;;;;;;;26.42;12.04;102793.13;5072350;28;20024;-80
2022/03/21 11:15:35;;;;;;;2.72;1.33;;;;;;;26.20;11.98;102792.03;5057383;28;20013;-80
2022/03/21 11:18:03;;;;;;;2.63;1.20;;;;;;;26.41;11.87;102796.09;5074306;28;20036;-81
2022/03/21 11:20:29;;;;;;;2.58;1.42;;;;;;;26.42;11.71;102787.66;5048281;28;20025;-79
2022/03/21 11:22:55;;;;;;;1.60;0.98;;;;;;;26.42;11.61;102781.31;5036327;28;20037;-77
2022/03/21 11:25:22;;;;;;;2.10;1.20;;;;;;;26.46;11.80;102784.41;5067576;28;20024;-76
2022/03/21 11:28:06;;;;;;;3.95;1.50;;;;;;;26.50;11.80;102771.91;5048396;28;20029;-77
2022/03/21 11:31:09;;;;;;;2.70;1.23;;;;;;;26.53;11.68;102774.19;5062331;28;20482;-77
2022/03/21 11:34:07;;;;;;;1.98;1.10;;;;;;;26.49;11.75;102764.75;5062790;28;20032;-80
2022/03/21 11:36:32;;;;;;;4.50;1.27;;;;;;;26.49;11.58;102770.22;5051231;28;20057;-77
2022/03/21 11:39:03;;;;;;;2.42;1.48;;;;;;;26.49;11.62;102770.22;5061150;28;20033;-79
2022/03/21 11:41:31;;;;;;;2.70;1.23;;;;;;;26.41;11.70;102768.69;5057901;28;20025;-76
2022/03/21 11:44:06;;;;;;;3.50;1.40;;;;;;;26.38;11.67;102761.75;5056598;28;20029;-78